Armstrong, Alabama
Current Conditions -  °F | °C
As of 1:35 PM on Thursday 18 Dec 2014 (Local Time) from KAUO Reporting Station
Broken Clouds Broken Clouds  
Wind Chill: 14°   Ceiling: 11000
Heat Index: 14°   Visibility: 10mi
Dew Point: -4°   Wind: 5mph
Humidity: 29%   Direction: 240°WSW
Pressure: 30.14"   Gusts: NA
Location:  32.2227°N, 85.6394°W
Report Text: KAUO 181935Z AUTO 24004KT 10SM FEW055 BKN110 14/M04 A3014 RMK AO1
Loading
Personal Weather Stations






























Interactive Weather Map New forecast layout! Learn more

10-Day Weather Forecast

Advertisements
Track Severe Weather on mobile